Aviation Digital Data Service (ADDS)

Output produced by METARs form (0107 UTC 16 October 2018)
found at http://www.aviationweather.gov/metar/data/
 
Forecast for: KGRK (GRAY/FT HOOD , TX, US)
Text: TAF KGRK 160000Z 1600/1706 36015G20KT 8000 -SHRA OVC008 QNH3016INS
Forecast period: 0000 to 0200 UTC 16 October 2018
Forecast type: FROM: standard forecast or significant change
Winds: from the N (360 degrees) at 17 MPH (15 knots; 7.7 m/s)
gusting to 23 MPH (20 knots; 10.3 m/s)
Visibility: 5 miles (8 km)
Ceiling: 800 feet AGL
Clouds: overcast cloud deck at 800 feet AGL
Weather: -SHRA  (light rain showers)
Text: BECMG 1602/1603 36009KT 8000 -SHRA OVC003 QNH3022INS
Forecast period: 0200 to 1500 UTC 16 October 2018
Forecast type: BECOMING: Conditions expected to become as follows by 0300 UTC 16 October 2018
Winds: from the N (360 degrees) at 10 MPH (9 knots; 4.6 m/s)
Visibility: 5 miles (8 km)
Ceiling: 300 feet AGL
Clouds: overcast cloud deck at 300 feet AGL
Weather: -SHRA  (light rain showers)
Text: BECMG 1615/1616 36012G18KT 8000 -SHRA BKN010 OVC025 QNH3016INS TX08/1623Z TN06/1600Z
Forecast period: 1500 UTC 16 October 2018 to 0600 UTC 17 October 2018
Forecast type: BECOMING: Conditions expected to become as follows by 1600 UTC 16 October 2018
Winds: from the N (360 degrees) at 14 MPH (12 knots; 6.2 m/s)
gusting to 21 MPH (18 knots; 9.3 m/s)
Visibility: 5 miles (8 km)
Ceiling: 1000 feet AGL
Clouds: broken clouds at 1000 feet AGL
overcast cloud deck at 2500 feet AGL
Weather: -SHRA  (light rain showers)

Forecast for: KACT (WACO , TX, US)
Text: KACT 152342Z 1600/1624 36016KT 4SM RA BKN010 OVC015
Forecast period: 0000 to 0500 UTC 16 October 2018
Forecast type: FROM: standard forecast or significant change
Winds: from the N (360 degrees) at 18 MPH (16 knots; 8.2 m/s)
Visibility: 4 miles (6 km)
Ceiling: 1000 feet AGL
Clouds: broken clouds at 1000 feet AGL
overcast cloud deck at 1500 feet AGL
Weather: RA  (moderate rain)
Text: FM160500 36015KT 3SM RA BKN008 OVC015
Forecast period: 0500 UTC 16 October 2018 to 0000 UTC 17 October 2018
Forecast type: FROM: standard forecast or significant change
Winds: from the N (360 degrees) at 17 MPH (15 knots; 7.7 m/s)
Visibility: 3 miles (5 km)
Ceiling: 800 feet AGL
Clouds: broken clouds at 800 feet AGL
overcast cloud deck at 1500 feet AGL
Weather: RA  (moderate rain)